createdAt,value
2022-08-11T00:00:01.452Z,242.1
2022-08-11T00:05:01.519Z,243.0
2022-08-11T00:10:01.479Z,239.5
2022-08-11T00:15:01.591Z,237.0
2022-08-11T00:20:11.478Z,230.8
2022-08-11T00:25:06.606Z,223.9
2022-08-11T00:30:01.539Z,222.5
2022-08-11T00:35:50.267Z,224.0
2022-08-11T00:40:01.501Z,223.2
2022-08-11T00:45:01.599Z,223.9
2022-08-11T00:50:01.476Z,229.0
2022-08-11T01:10:07.260Z,229.6
2022-08-11T01:30:01.029Z,223.4
2022-08-11T01:35:00.971Z,222.3
2022-08-11T01:50:07.499Z,232.2
2022-08-11T05:45:01.491Z,78.0
2022-08-11T05:50:01.668Z,96.0
2022-08-11T05:55:05.411Z,104.8
2022-08-11T06:00:01.408Z,129.6
2022-08-11T06:05:01.402Z,161.1
2022-08-11T06:10:01.362Z,173.4
2022-08-11T06:15:01.401Z,186.7
2022-08-11T06:20:04.159Z,212.6
2022-08-11T06:25:01.457Z,219.6
2022-08-11T06:30:01.335Z,224.6
2022-08-11T06:35:01.460Z,236.4
2022-08-11T06:40:01.323Z,247.9
2022-08-11T07:00:01.166Z,228.0
2022-08-11T07:05:01.153Z,281.6
2022-08-11T07:10:01.087Z,246.9
2022-08-11T07:30:01.559Z,121.8
2022-08-11T07:35:01.610Z,120.9
2022-08-11T07:40:01.554Z,116.3
2022-08-11T07:45:01.837Z,111.8
2022-08-11T07:50:01.589Z,108.1
2022-08-11T07:55:01.687Z,99.2
2022-08-11T08:00:04.416Z,90.9
2022-08-11T08:05:01.590Z,85.2
2022-08-11T08:10:01.527Z,83.0
2022-08-11T08:15:01.680Z,87.0
2022-08-11T08:20:01.443Z,96.1
2022-08-11T08:25:01.560Z,107.0
2022-08-11T08:30:01.423Z,119.8
2022-08-11T08:35:01.492Z,132.4
2022-08-11T08:40:01.432Z,143.0
2022-08-11T08:45:01.610Z,157.8
2022-08-11T08:50:01.426Z,174.2
2022-08-11T08:55:01.486Z,187.3
2022-08-11T09:00:01.442Z,204.8
2022-08-11T09:05:01.565Z,218.8
2022-08-11T09:10:07.421Z,227.8
2022-08-11T09:15:01.537Z,233.4
2022-08-11T09:20:01.707Z,244.4
2022-08-11T09:25:01.477Z,257.5
2022-08-11T09:30:01.416Z,273.7
2022-08-11T09:35:01.571Z,294.4
2022-08-11T09:40:01.430Z,318.8
2022-08-11T09:45:02.015Z,339.4
2022-08-11T09:50:01.779Z,358.4
2022-08-11T09:55:01.491Z,373.7
2022-08-11T10:00:09.639Z,385.9
2022-08-11T10:05:01.593Z,392.4
2022-08-11T10:10:01.472Z,401.3
2022-08-11T10:15:01.529Z,403.4
2022-08-11T10:20:04.623Z,404.8
2022-08-11T10:25:01.599Z,408.0
2022-08-11T10:30:01.448Z,405.5
2022-08-11T10:35:01.592Z,409.7
2022-08-11T10:40:06.442Z,417.6
2022-08-11T10:45:01.514Z,426.8
2022-08-11T10:50:01.553Z,432.8
2022-08-11T10:55:01.617Z,447.0
2022-08-11T11:00:01.433Z,452.3
2022-08-11T11:05:01.498Z,452.8
2022-08-11T11:10:01.387Z,451.2
2022-08-11T11:15:01.484Z,447.7
2022-08-11T11:20:01.361Z,447.4
2022-08-11T11:25:01.464Z,444.1
2022-08-11T11:30:01.396Z,439.5
2022-08-11T11:35:01.517Z,434.7
2022-08-11T11:40:01.361Z,371.5
2022-08-11T11:45:01.701Z,303.2
2022-08-11T11:50:01.420Z,230.5
2022-08-11T11:55:01.502Z,152.8
2022-08-11T12:00:01.380Z,71.6
2022-08-11T12:05:01.506Z,47.8
2022-08-11T12:10:01.377Z,25.1
2022-08-11T12:15:01.462Z,9.7
2022-08-11T13:10:01.392Z,14.4
2022-08-11T13:15:01.409Z,14.4
2022-08-11T13:30:01.336Z,14.4
2022-08-11T15:50:10.117Z,13.7
2022-08-11T16:00:01.240Z,13.7
2022-08-11T18:30:01.254Z,10.4
2022-08-11T18:45:01.229Z,10.4
2022-08-11T19:00:01.147Z,3.5
2022-08-11T19:05:01.139Z,19.4
2022-08-11T19:10:02.111Z,82.7
2022-08-11T19:20:01.227Z,154.4
2022-08-11T19:25:01.210Z,229.9
2022-08-11T19:30:02.690Z,294.1
2022-08-11T19:35:01.219Z,348.4
2022-08-11T19:40:01.088Z,351.6
2022-08-11T19:45:01.157Z,342.0
2022-08-11T19:50:01.113Z,330.1
2022-08-11T19:55:01.207Z,327.8
2022-08-11T20:00:01.071Z,320.8
2022-08-11T20:05:01.127Z,309.7
2022-08-11T20:10:05.632Z,300.3
2022-08-11T20:15:01.192Z,286.8
2022-08-11T20:30:01.130Z,249.0
2022-08-11T20:35:01.137Z,234.8
2022-08-11T20:40:01.068Z,216.8
2022-08-11T20:45:01.212Z,224.2
2022-08-11T20:50:02.911Z,233.4
2022-08-11T20:55:01.136Z,243.5
2022-08-11T21:00:01.075Z,256.0
2022-08-11T21:05:01.133Z,273.1
2022-08-11T21:10:09.670Z,260.2
2022-08-11T21:20:07.054Z,247.8
2022-08-11T21:25:01.186Z,238.6
2022-08-11T21:30:01.062Z,184.7
2022-08-11T21:35:01.163Z,133.0
2022-08-11T21:40:01.158Z,87.8
2022-08-11T21:45:01.208Z,42.8
